< Typhoon 195309 1953 Season Typhoon 195311 >
Typhoon 195310 (RITA)
General InformationTrack Information on Google Maps || Disaster Info.ResourceGoogle EarthGE AnimationAtom FeedGeoJSON
Detalied Best Track (Time Zone = UTC)
Year Month Day Hour Lat. Long. Pressure (hPa) Wind (kt) Class Image Chart
1953 8 23 06 10.4 162.0 1006 0 2 -- Chart
1953 8 23 12 10.4 160.4 1006 0 2 -- Chart
1953 8 23 18 10.5 159.0 1006 0 2 -- Chart
1953 8 24 00 10.7 158.0 1006 0 2 -- Chart
1953 8 24 06 11.0 157.1 1000 0 9 -- Chart
1953 8 24 12 11.3 156.3 1000 0 9 -- Chart
1953 8 24 18 11.8 155.5 998 0 9 -- Chart
1953 8 25 00 12.1 154.5 997 0 9 -- Chart
1953 8 25 06 12.6 154.2 985 0 9 -- Chart
1953 8 25 12 13.4 153.2 985 0 9 -- Chart
1953 8 25 18 14.0 152.1 985 0 9 -- Chart
1953 8 26 00 14.7 150.7 985 0 9 -- Chart
1953 8 26 06 15.3 149.4 980 0 9 -- Chart
1953 8 26 12 15.8 149.2 970 0 9 -- Chart
1953 8 26 18 16.2 148.9 960 0 9 -- Chart
1953 8 27 00 17.3 148.2 960 0 9 -- Chart
1953 8 27 06 17.8 146.1 950 0 9 -- Chart
1953 8 27 12 18.3 144.5 950 0 9 -- Chart
1953 8 27 18 18.9 143.0 950 0 9 -- Chart
1953 8 28 00 19.4 141.2 940 0 9 -- Chart
1953 8 28 06 19.7 139.4 940 0 9 -- Chart
1953 8 28 12 19.9 137.4 940 0 9 -- Chart
1953 8 28 18 20.1 135.3 940 0 9 -- Chart
1953 8 29 00 20.6 132.9 940 0 9 -- Chart
1953 8 29 06 20.5 131.2 940 0 9 -- Chart
1953 8 29 12 20.0 130.1 940 0 9 -- Chart
1953 8 29 18 19.8 129.5 940 0 9 -- Chart
1953 8 30 00 19.8 128.3 940 0 9 -- Chart
1953 8 30 06 19.4 127.0 940 0 9 -- Chart
1953 8 30 12 18.4 125.7 940 0 9 -- Chart
1953 8 30 18 18.3 125.1 960 0 9 -- Chart
1953 8 31 00 18.3 124.4 980 0 9 -- Chart
1953 8 31 06 19.5 123.2 980 0 9 -- Chart
1953 8 31 12 20.2 122.1 980 0 9 -- Chart
1953 8 31 18 20.8 121.2 980 0 9 -- Chart
1953 9 1 00 21.5 120.2 960 0 9 -- Chart
1953 9 1 06 21.9 118.7 950 0 9 -- Chart
1953 9 1 12 22.2 117.1 960 0 9 -- Chart
1953 9 1 18 22.5 115.4 970 0 9 -- Chart
1953 9 2 00 22.8 113.9 980 0 9 -- Chart
1953 9 2 06 23.0 111.8 994 0 9 -- Chart
1953 9 2 12 23.2 110.0 996 0 9 -- Chart
1953 9 2 18 23.3 108.7 998 0 9 -- Chart
1953 9 3 00 23.3 107.0 998 0 9 -- Chart
1953 9 3 06 23.2 106.0 1002 0 9 -- Chart
1953 9 3 12 23.0 104.5 1002 0 6 -- Chart
1953 9 3 18 22.6 103.0 1002 0 6 -- Chart
Japan Meteorological Agency Best Track Data | Correction Date : 1989-06-01
< Typhoon 195309 1953 Season Typhoon 195311 >

Help